CST,Max TemperatureF,Mean TemperatureF,Min TemperatureF,Max Dew PointF,MeanDew PointF,Min DewpointF,Max Humidity, Mean Humidity, Min Humidity, Max Sea Level PressureIn, Mean Sea Level PressureIn, Min Sea Level PressureIn, Max VisibilityMiles, Mean VisibilityMiles, Min VisibilityMiles, Max Wind SpeedMPH, Mean Wind SpeedMPH, Max Gust SpeedMPH,PrecipitationIn, CloudCover, Events, WindDirDegrees
2010-11-1,66,57,47,39,34,29,59,47,34,30.25,30.20,30.15,10,10,10,17,10,21,0.00,0,,65
2010-11-2,61,54,46,37,33,29,58,49,39,30.26,30.19,30.13,10,10,10,15,9,20,0.00,1,,52
2010-11-3,58,50,41,48,42,32,93,69,45,30.12,30.04,29.91,10,6,2,9,4,12,0.25,6,Rain,27
2010-11-4,58,51,43,35,32,29,70,54,38,29.91,29.88,29.84,10,10,10,26,10,31,T,4,Rain,319
2010-11-5,52,40,27,35,29,20,78,57,36,30.19,30.02,29.90,10,10,5,20,10,26,T,5,Rain,328
2010-11-6,51,38,24,25,20,16,81,54,27,30.42,30.35,30.20,10,10,7,12,3,14,0.00,0,,280
2010-11-7,62,45,28,24,22,21,78,49,20,30.46,30.35,30.19,10,10,10,13,5,18,0.00,0,,200
2010-11-8,70,54,38,34,30,24,46,36,25,30.17,30.07,29.98,10,10,10,15,6,23,0.00,0,,213
2010-11-9,75,56,36,42,38,33,85,57,29,30.06,30.01,29.97,10,10,10,10,3,15,0.00,0,,208
2010-11-10,75,56,36,47,41,34,92,65,38,30.19,30.10,30.02,10,10,8,12,3,15,0.00,0,,161
2010-11-11,78,60,41,48,42,37,83,58,33,30.32,30.28,30.20,10,10,9,9,1,12,0.00,0,,100
2010-11-12,78,58,38,43,37,34,89,55,20,30.30,30.22,30.12,10,10,9,13,4,16,0.00,0,,168
2010-11-13,61,49,37,56,49,34,93,70,46,30.09,30.03,29.99,10,6,1,15,7,20,0.07,6,Rain,230
2010-11-14,52,41,29,36,30,27,100,71,41,30.14,30.07,30.01,10,9,3,9,2,12,0.00,0,,254
2010-11-15,53,41,29,35,31,26,92,71,50,29.99,29.91,29.81,10,10,8,8,2,13,0.00,2,,83
2010-11-16,45,40,35,42,38,31,96,86,76,29.90,29.67,29.54,10,5,2,16,8,23,0.67,7,Rain,301
2010-11-17,48,45,42,43,41,40,96,88,80,30.16,30.08,29.93,7,4,1,14,4,18,0.03,7,,184
2010-11-18,46,45,43,43,40,37,92,84,76,30.34,30.25,30.16,7,4,2,14,6,17,0.04,8,Rain,14
2010-11-19,50,43,36,40,38,34,92,82,71,30.32,30.24,30.19,10,7,3,14,4,18,0.00,6,,196
2010-11-20,59,46,32,48,40,31,100,86,72,30.26,30.18,30.13,10,3,0,10,2,14,0.00,3,Fog,184
2010-11-21,68,53,37,57,49,36,100,82,63,30.17,30.12,30.04,10,5,0,15,8,28,0.00,5,Fog,185
2010-11-22,70,67,63,61,56,51,68,66,63,30.05,29.97,29.86,10,10,4,22,12,33,0.12,7,Rain-Thunderstorm,200
2010-11-23,65,52,38,60,41,31,89,65,41,30.24,30.13,29.94,10,10,4,22,10,31,0.10,3,Rain,11
2010-11-24,68,54,39,61,44,31,96,83,70,30.16,29.95,29.73,10,5,1,18,10,25,1.25,7,Rain,109
2010-11-25,70,52,33,62,45,21,96,83,69,30.11,29.81,29.64,10,8,2,35,13,48,0.94,8,Rain-Snow,308
2010-11-26,42,33,24,25,20,15,81,58,34,30.18,30.11,30.06,10,10,10,17,7,22,0.00,0,,252
2010-11-27,49,38,27,28,26,24,85,64,42,30.23,30.18,30.09,10,10,10,15,5,18,0.00,0,,276
2010-11-28,54,40,26,33,29,25,92,65,38,30.27,30.16,30.06,10,10,7,12,6,14,0.00,0,,130
2010-11-29,57,49,41,54,47,30,96,79,62,30.06,29.83,29.69,10,6,2,21,10,29,1.45,7,Rain-Thunderstorm,154
2010-11-30,56,45,33,54,37,22,93,77,61,30.08,29.89,29.72,10,10,4,21,12,25,0.02,8,Rain,260